Pazardzhik, Bulgaria
Current Conditions -  °F | °C
As of 1:00 PM on Friday 21 Nov 2014 (Local Time) from LBPD Reporting Station
Broken Clouds Broken Clouds  
Wind Chill: 50°   Ceiling: 6000
Heat Index: 50°   Visibility: 6mi
Dew Point: 37°   Wind: 20mph
Humidity: 62%   Direction: 270°W
Pressure: 30.09"   Gusts: NA
Location:  42.2°N, 24.34°E
Report Text: LBPD 211000Z 27009MPS 9999 BKN060 10/03 Q1019 NOSIG
Loading
Personal Weather Stations






























Interactive Weather Map New forecast layout! Learn more

10-Day Weather Forecast

Advertisements
Track Severe Weather on mobile